Flight Track Log - Related Links

Times and Time Zones

All times are in EDT time to prevent confusion due to time zone crossing. See the HAL107 flight status page for this flight to view local times or setup timezone preferences in your user account.

Time Position Orientation Groundspeed Altitude Reporting Facility
EDT Latitude Longitude Course Direction KTS MPH feet Rate Location/Type
Sat 12:17:50 PM 19.7000 -156.0500 303° West 240 276 1,700  Level Honolulu Center
Sat 12:18:50 PM 19.7167 -156.1000 290° West 230 265 3,100 1,650 Climbing Honolulu Center
Sat 12:19:50 PM 19.7667 -156.1500 317° Northwest 260 299 5,000 2,050 Climbing Honolulu Center
Sat 12:20:00 PM 19.8582 -156.2706 305° West  Level FlightAware Approximate
Sat 12:20:50 PM 19.8167 -156.2167 309° West 280 322 7,200  Level Honolulu Center
Sat 12:21:00 PM 19.9196 -156.3468 301° West  Level FlightAware Approximate
Sat 12:21:50 PM 19.8833 -156.2833 317° Northwest 300 345 9,500  Level Honolulu Center
Sat 12:22:00 PM 19.9697 -156.4363 317° Northwest  Level FlightAware Approximate
Sat 12:22:50 PM 19.9333 -156.3500 309° West 320 368 11,100  Level Honolulu Center
Sat 12:23:00 PM 20.0321 -156.5201 303° West  Level FlightAware Approximate
Sat 12:23:50 PM 20.0000 -156.4333 310° West 360 414 12,100  Level Honolulu Center
Sat 12:24:51 PM 20.0667 -156.5167 310° West 380 437 14,100 1,934 Climbing Honolulu Center
Sat 12:25:51 PM 20.1500 -156.6000 317° Northwest 380 437 16,000 1,800 Climbing Honolulu Center
Sat 12:26:51 PM 20.2167 -156.6833 310° West 390 449 17,700 2,000 Climbing Honolulu Center
Sat 12:27:51 PM 20.2833 -156.7667 310° West 390 449 20,000 1,150 Climbing Honolulu Center
Sat 12:28:51 PM 20.3667 -156.8500 317° Northwest 390 449 20,000  Level Honolulu Center
Sat 12:29:51 PM 20.4333 -156.9500 305° West 390 449 20,000  Level Honolulu Center
Sat 12:30:51 PM 20.5000 -157.0333 311° West 380 437 20,000  Level Honolulu Center
Sat 12:31:51 PM 20.5833 -157.1167 317° Northwest 390 449 20,000  Level Honolulu Center
Sat 12:32:51 PM 20.6500 -157.2000 311° West 390 449 20,000 -100 Level Honolulu Center
Sat 12:33:51 PM 20.7167 -157.2833 311° West 390 449 19,800 -1,240 Descending Honolulu Center
Sat 12:34:52 PM 20.7833 -157.3833 306° West 380 437 17,500 -2,380 Descending Honolulu Center
Sat 12:35:52 PM 20.8500 -157.4667 311° West 370 426 15,000 -2,550 Descending Honolulu Center
Sat 12:36:52 PM 20.9167 -157.5500 311° West 360 414 12,400 -2,150 Descending Honolulu Center
Sat 12:37:52 PM 20.9667 -157.6333 303° West 340 391 10,700 -1,600 Descending Honolulu Center
Sat 12:38:52 PM 21.0167 -157.7000 309° West 300 345 9,200 -1,600 Descending Honolulu Center
Sat 12:39:52 PM 21.0667 -157.7833 303° West 290 334 7,500 -1,750 Descending Honolulu Center
Sat 12:40:52 PM 21.1167 -157.8500 309° West 280 322 5,700 -2,050 Descending Honolulu Center
Sat 12:41:52 PM 21.1667 -157.9167 309° West 270 311 3,400 -2,033 Descending Honolulu Center
Sat 12:42:53 PM 21.2333 -157.9500 335° Northwest 260 299 1,600 -1,770 Descending Honolulu Center

Login

Don't have an account? Register now (free) for customized features, flight alerts, and more!